Time;durP1;ratioP1;P1;durP2;ratioP2;P2;SDS_P1;SDS_P2;PMS_P1;PMS_P2;Temp;Humidity;BMP_temperature;BMP_pressure;BME280_temperature;BME280_humidity;BME280_pressure;Samples;Min_cycle;Max_cycle;Signal;HPM_P1;HPM_P2
2024/04/20 00:00:56;;;;;;;0.60;0.60;;;15.70;59.40;;;;;;5415383;26;20592;-65
2024/04/20 00:03:21;;;;;;;0.60;0.60;;;15.70;59.40;;;;;;5415809;26;20258;-65
2024/04/20 00:05:47;;;;;;;2.20;0.80;;;15.70;59.40;;;;;;5414516;26;20221;-65
2024/04/20 00:08:12;;;;;;;0.70;0.70;;;15.70;59.40;;;;;;5415265;26;20321;-64
2024/04/20 00:10:38;;;;;;;0.98;0.70;;;15.70;59.40;;;;;;5415813;26;20313;-65
2024/04/20 00:13:03;;;;;;;0.80;0.73;;;15.70;59.40;;;;;;5414454;26;20321;-66
2024/04/20 00:15:29;;;;;;;1.13;0.68;;;15.70;59.40;;;;;;5415665;26;20232;-65
2024/04/20 00:17:54;;;;;;;1.65;0.65;;;15.70;59.40;;;;;;5414929;26;20593;-66
2024/04/20 00:20:20;;;;;;;0.75;0.60;;;15.70;59.40;;;;;;5414632;26;20815;-66
2024/04/20 00:22:45;;;;;;;1.65;0.60;;;15.70;59.40;;;;;;5414891;26;20313;-65
2024/04/20 00:25:14;;;;;;;0.73;0.60;;;15.70;59.40;;;;;;5414606;26;20220;-65
2024/04/20 00:27:40;;;;;;;1.13;0.57;;;15.70;59.40;;;;;;5415120;26;20739;-64
2024/04/20 00:30:07;;;;;;;0.45;0.45;;;15.70;59.40;;;;;;5415308;26;20263;-65
2024/04/20 00:32:33;;;;;;;1.38;0.73;;;15.60;59.40;;;;;;5414386;26;20263;-65
2024/04/20 00:35:00;;;;;;;0.77;0.47;;;15.60;59.40;;;;;;5414838;26;20224;-65
2024/04/20 00:37:25;;;;;;;2.83;1.00;;;15.70;59.50;;;;;;5415242;26;20270;-66
2024/04/20 00:39:51;;;;;;;0.85;0.60;;;15.60;59.40;;;;;;5414038;26;20220;-65
2024/04/20 00:42:16;;;;;;;0.55;0.55;;;15.60;59.40;;;;;;5415102;26;20221;-66
2024/04/20 00:44:42;;;;;;;0.85;0.60;;;15.60;59.50;;;;;;5414643;26;20737;-66
2024/04/20 00:47:07;;;;;;;0.60;0.50;;;15.60;59.50;;;;;;5414140;26;20291;-65
2024/04/20 00:49:33;;;;;;;0.52;0.50;;;15.60;59.50;;;;;;5415026;26;20236;-66
2024/04/20 00:51:59;;;;;;;0.80;0.70;;;15.60;59.50;;;;;;5414515;26;20225;-65
2024/04/20 00:54:27;;;;;;;1.45;0.60;;;15.60;59.50;;;;;;5414023;26;20225;-65
2024/04/20 00:56:55;;;;;;;0.73;0.50;;;15.60;59.50;;;;;;5384489;26;20692;-66
2024/04/20 00:59:21;;;;;;;0.73;0.60;;;15.60;59.50;;;;;;5387173;26;20745;-66
2024/04/20 01:01:47;;;;;;;0.50;0.50;;;15.60;59.50;;;;;;5356882;26;20228;-66
2024/04/20 01:04:12;;;;;;;0.60;0.60;;;15.60;59.50;;;;;;5387133;26;20220;-66
2024/04/20 01:06:38;;;;;;;0.40;0.40;;;15.60;59.50;;;;;;5418323;26;20220;-66
2024/04/20 01:09:04;;;;;;;1.38;0.70;;;15.60;59.40;;;;;;5417210;26;20228;-65
2024/04/20 01:11:32;;;;;;;0.55;0.52;;;15.60;59.50;;;;;;5418266;26;20275;-65
2024/04/20 01:14:02;;;;;;;0.60;0.50;;;15.50;59.50;;;;;;5417915;26;20594;-66
2024/04/20 01:16:27;;;;;;;1.95;1.00;;;15.60;59.50;;;;;;5417470;26;20648;-66
2024/04/20 01:18:53;;;;;;;0.50;0.50;;;15.60;59.50;;;;;;5417800;26;20833;-66
2024/04/20 01:21:20;;;;;;;0.50;0.50;;;15.50;59.50;;;;;;5417859;26;20221;-66
2024/04/20 01:23:51;;;;;;;1.05;0.70;;;15.50;59.50;;;;;;5417520;26;20224;-65
2024/04/20 01:26:17;;;;;;;1.15;0.68;;;15.60;59.50;;;;;;5418213;26;20616;-65
2024/04/20 01:28:43;;;;;;;1.15;0.70;;;15.50;59.40;;;;;;5416854;26;20816;-64
2024/04/20 01:31:08;;;;;;;1.20;0.65;;;15.50;59.40;;;;;;5418051;26;20779;-65
2024/04/20 01:33:34;;;;;;;0.68;0.63;;;15.50;59.50;;;;;;5417897;26;20595;-66
2024/04/20 01:35:59;;;;;;;1.10;0.57;;;15.50;59.50;;;;;;5416744;26;20683;-66
2024/04/20 01:38:25;;;;;;;0.40;0.40;;;15.50;59.50;;;;;;5417992;26;20220;-66
2024/04/20 01:40:51;;;;;;;1.58;0.68;;;15.50;59.50;;;;;;5417391;26;20305;-66
2024/04/20 01:43:17;;;;;;;0.45;0.40;;;15.50;59.50;;;;;;5417129;26;20225;-66
2024/04/20 01:45:42;;;;;;;0.77;0.60;;;15.50;59.50;;;;;;5417476;26;20329;-66
2024/04/20 01:48:08;;;;;;;0.50;0.40;;;15.50;59.50;;;;;;5417643;26;20221;-66
2024/04/20 01:50:34;;;;;;;0.68;0.60;;;15.50;59.50;;;;;;5416993;26;20221;-66
2024/04/20 01:52:59;;;;;;;1.27;0.50;;;15.50;59.50;;;;;;5386151;26;20268;-66
2024/04/20 01:55:25;;;;;;;0.88;0.60;;;15.50;59.50;;;;;;5417709;26;20224;-66
2024/04/20 01:57:51;;;;;;;0.50;0.50;;;15.50;59.50;;;;;;5416464;26;20224;-66
2024/04/20 02:00:17;;;;;;;1.40;0.70;;;15.50;59.50;;;;;;5417626;26;20221;-65
2024/04/20 02:02:43;;;;;;;0.43;0.40;;;15.50;59.50;;;;;;5417214;26;20220;-66
2024/04/20 02:05:08;;;;;;;0.65;0.47;;;15.40;59.50;;;;;;5416808;26;20616;-65
2024/04/20 02:07:34;;;;;;;2.90;1.00;;;15.40;59.50;;;;;;5416839;26;20294;-65
2024/04/20 02:10:00;;;;;;;0.55;0.50;;;15.40;59.50;;;;;;5416449;26;20224;-65
2024/04/20 02:12:25;;;;;;;1.27;0.60;;;15.40;59.50;;;;;;5416758;26;20757;-64
2024/04/20 02:14:51;;;;;;;0.80;0.45;;;15.40;59.50;;;;;;5417129;26;20217;-65
2024/04/20 02:17:16;;;;;;;0.40;0.40;;;15.40;59.50;;;;;;5416997;26;20236;-66
2024/04/20 02:19:42;;;;;;;0.43;0.43;;;15.40;59.50;;;;;;5416237;26;20671;-65
2024/04/20 02:22:07;;;;;;;0.98;0.65;;;15.40;59.50;;;;;;5417262;26;20321;-65
2024/04/20 02:24:33;;;;;;;0.88;0.70;;;15.40;59.50;;;;;;5417366;26;20321;-65
2024/04/20 02:26:59;;;;;;;0.80;0.45;;;15.40;59.50;;;;;;5416138;26;20707;-65
2024/04/20 02:29:24;;;;;;;0.88;0.57;;;15.40;59.50;;;;;;5417284;26;20221;-65
2024/04/20 02:31:50;;;;;;;0.50;0.45;;;15.40;59.50;;;;;;5416062;26;20262;-65
2024/04/20 02:34:15;;;;;;;0.90;0.50;;;15.40;59.50;;;;;;5417275;26;20624;-66
2024/04/20 02:36:41;;;;;;;0.50;0.50;;;15.30;59.50;;;;;;5416825;26;20679;-66
2024/04/20 02:39:06;;;;;;;0.50;0.50;;;15.40;59.50;;;;;;5416338;26;20714;-66
2024/04/20 02:41:32;;;;;;;1.17;0.60;;;15.40;59.60;;;;;;5416896;26;20590;-66
2024/04/20 02:43:57;;;;;;;0.85;0.60;;;15.40;59.50;;;;;;5416722;26;20603;-66
2024/04/20 02:46:23;;;;;;;0.47;0.47;;;15.40;59.50;;;;;;5416126;26;20229;-66
2024/04/20 02:48:48;;;;;;;0.68;0.68;;;15.30;59.50;;;;;;5416647;26;20228;-65
2024/04/20 02:51:14;;;;;;;0.82;0.52;;;15.30;59.50;;;;;;5416979;26;20723;-66
2024/04/20 02:53:39;;;;;;;0.65;0.65;;;15.30;59.50;;;;;;5415971;26;20216;-66
2024/04/20 02:56:05;;;;;;;0.47;0.40;;;15.30;59.60;;;;;;5416771;26;20691;-66
2024/04/20 02:58:31;;;;;;;0.43;0.43;;;15.30;59.50;;;;;;5416934;26;20220;-66
2024/04/20 03:00:58;;;;;;;0.77;0.70;;;15.30;59.60;;;;;;5415479;26;20331;-66
2024/04/20 03:03:25;;;;;;;1.08;0.65;;;15.30;59.60;;;;;;5416832;26;20287;-66
2024/04/20 03:05:50;;;;;;;0.80;0.40;;;15.30;59.60;;;;;;5416304;26;20221;-65
2024/04/20 03:08:16;;;;;;;0.65;0.40;;;15.30;59.60;;;;;;5415953;26;20255;-65
2024/04/20 03:10:41;;;;;;;1.38;0.65;;;15.30;59.60;;;;;;5416360;26;20254;-66
2024/04/20 03:13:07;;;;;;;0.45;0.45;;;15.40;59.60;;;;;;5416693;26;20216;-66
2024/04/20 03:15:32;;;;;;;0.57;0.57;;;15.30;59.60;;;;;;5415706;26;20225;-66
2024/04/20 03:17:58;;;;;;;0.88;0.60;;;15.30;59.60;;;;;;5416100;26;20292;-66
2024/04/20 03:20:24;;;;;;;0.57;0.40;;;15.30;59.60;;;;;;5415979;26;20679;-66
2024/04/20 03:22:49;;;;;;;0.75;0.57;;;15.30;59.60;;;;;;5415153;26;20697;-66
2024/04/20 03:25:15;;;;;;;0.60;0.55;;;15.30;59.60;;;;;;5416550;26;20267;-65
2024/04/20 03:27:46;;;;;;;0.77;0.50;;;15.30;59.60;;;;;;5416050;26;20803;-66
2024/04/20 03:30:11;;;;;;;0.57;0.52;;;15.20;59.50;;;;;;5415730;26;20725;-65
2024/04/20 03:32:37;;;;;;;0.50;0.50;;;15.30;59.60;;;;;;5416380;26;20751;-66
2024/04/20 03:35:04;;;;;;;0.60;0.60;;;15.30;59.60;;;;;;5415169;26;20320;-66
2024/04/20 03:37:29;;;;;;;0.60;0.60;;;15.20;59.60;;;;;;5416309;26;20232;-66
2024/04/20 03:39:55;;;;;;;0.50;0.43;;;15.30;59.70;;;;;;5415829;26;20263;-67
2024/04/20 03:42:20;;;;;;;1.13;0.50;;;15.20;60.40;;;;;;5415313;26;20263;-66
2024/04/20 03:44:46;;;;;;;0.60;0.60;;;15.20;59.60;;;;;;5415674;26;20262;-66
2024/04/20 03:47:11;;;;;;;0.40;0.40;;;15.20;59.60;;;;;;5416064;26;20225;-66
2024/04/20 03:49:37;;;;;;;1.23;0.60;;;15.20;59.60;;;;;;5415213;26;20311;-66
2024/04/20 03:52:02;;;;;;;0.63;0.50;;;15.30;59.70;;;;;;5415658;26;20710;-67
2024/04/20 03:54:28;;;;;;;1.92;0.52;;;15.20;59.60;;;;;;5415973;26;20267;-66
2024/04/20 03:56:53;;;;;;;1.65;0.57;;;15.20;59.60;;;;;;5414750;26;20263;-66
2024/04/20 03:59:19;;;;;;;1.30;0.52;;;15.20;59.60;;;;;;5415833;26;20341;-66
2024/04/20 04:01:44;;;;;;;0.65;0.50;;;15.20;59.60;;;;;;5415367;26;20232;-66
2024/04/20 04:04:10;;;;;;;1.15;0.60;;;15.20;59.60;;;;;;5415059;26;20289;-66
2024/04/20 04:06:35;;;;;;;0.70;0.40;;;15.20;60.40;;;;;;5415804;26;20224;-65
2024/04/20 04:09:01;;;;;;;1.00;0.45;;;15.20;59.60;;;;;;5415418;26;20248;-66
2024/04/20 04:11:26;;;;;;;1.92;0.50;;;15.20;59.60;;;;;;5414859;26;20232;-65
2024/04/20 04:13:52;;;;;;;0.90;0.70;;;15.10;59.60;;;;;;5415182;26;20271;-66
2024/04/20 04:16:17;;;;;;;0.63;0.50;;;15.20;59.60;;;;;;5415513;26;20592;-66
2024/04/20 04:18:43;;;;;;;0.43;0.43;;;15.10;59.60;;;;;;5414311;26;20643;-66
2024/04/20 04:21:10;;;;;;;0.50;0.43;;;15.20;59.60;;;;;;5415444;26;20224;-66
2024/04/20 04:23:39;;;;;;;0.50;0.50;;;15.20;59.60;;;;;;5415506;26;20346;-66
2024/04/20 04:26:06;;;;;;;1.65;0.52;;;15.20;59.60;;;;;;5414511;26;20232;-65
2024/04/20 04:28:31;;;;;;;1.65;0.50;;;15.10;59.60;;;;;;5415330;26;20220;-65
2024/04/20 04:30:57;;;;;;;0.95;0.60;;;15.10;60.30;;;;;;5415034;26;20221;-66
2024/04/20 04:33:22;;;;;;;1.52;0.73;;;15.10;59.60;;;;;;5418014;26;20259;-66
2024/04/20 04:35:54;;;;;;;1.17;0.68;;;15.10;59.60;;;;;;5418449;26;20224;-66
2024/04/20 04:38:20;;;;;;;0.50;0.50;;;15.10;59.70;;;;;;5388375;26;20327;-66
2024/04/20 04:40:45;;;;;;;0.88;0.40;;;15.10;59.60;;;;;;5418308;26;20220;-66
2024/04/20 04:43:11;;;;;;;0.95;0.70;;;15.10;59.60;;;;;;5418664;26;20268;-65
2024/04/20 04:45:36;;;;;;;1.48;0.63;;;15.20;59.60;;;;;;5417919;26;20918;-66
2024/04/20 04:48:03;;;;;;;0.73;0.50;;;15.20;59.60;;;;;;5418302;26;20221;-66
2024/04/20 04:50:29;;;;;;;0.47;0.47;;;15.30;59.60;;;;;;5418694;26;20325;-66
2024/04/20 04:52:55;;;;;;;0.70;0.50;;;15.30;59.50;;;;;;5417496;26;20232;-66
2024/04/20 04:55:21;;;;;;;0.47;0.40;;;15.40;59.60;;;;;;5418660;26;20220;-65
2024/04/20 04:57:46;;;;;;;0.90;0.63;;;15.40;59.50;;;;;;5418135;26;20259;-66
2024/04/20 05:00:13;;;;;;;0.95;0.68;;;15.50;59.50;;;;;;5417639;26;20738;-65
2024/04/20 05:02:38;;;;;;;0.60;0.60;;;15.50;59.30;;;;;;5418438;26;20233;-65
2024/04/20 05:05:04;;;;;;;0.60;0.50;;;15.60;59.40;;;;;;5418212;26;20265;-65
2024/04/20 05:07:29;;;;;;;0.55;0.50;;;15.60;59.30;;;;;;5417738;26;20266;-65
2024/04/20 05:09:55;;;;;;;0.63;0.40;;;15.70;59.30;;;;;;5418085;26;20251;-65
2024/04/20 05:12:20;;;;;;;0.63;0.40;;;15.70;59.20;;;;;;5418339;26;20228;-65
2024/04/20 05:14:46;;;;;;;0.50;0.50;;;15.70;59.20;;;;;;5417183;26;20677;-65
2024/04/20 05:17:11;;;;;;;0.95;0.50;;;15.80;59.10;;;;;;5418162;26;20221;-65
2024/04/20 05:19:37;;;;;;;0.75;0.40;;;15.80;59.00;;;;;;5418507;26;20578;-65
2024/04/20 05:22:02;;;;;;;0.88;0.40;;;15.80;58.90;;;;;;5416963;26;20263;-65
2024/04/20 05:24:28;;;;;;;0.90;0.50;;;15.90;58.90;;;;;;5418124;26;20571;-64
2024/04/20 05:26:53;;;;;;;0.63;0.50;;;15.90;58.80;;;;;;5417736;26;20216;-64
2024/04/20 05:29:19;;;;;;;0.70;0.50;;;15.90;58.80;;;;;;5417215;26;20225;-64
2024/04/20 05:31:44;;;;;;;0.77;0.45;;;15.90;58.80;;;;;;5417717;26;20259;-64
2024/04/20 05:34:10;;;;;;;1.20;0.50;;;15.90;58.80;;;;;;5418051;26;20220;-65
2024/04/20 05:36:35;;;;;;;0.50;0.50;;;15.90;58.90;;;;;;5417150;26;20216;-66
2024/04/20 05:39:01;;;;;;;0.50;0.50;;;15.80;58.90;;;;;;5417608;26;20243;-65
2024/04/20 05:41:27;;;;;;;1.48;0.70;;;15.80;58.90;;;;;;5417819;26;20220;-66
2024/04/20 05:43:52;;;;;;;0.65;0.50;;;15.90;59.60;;;;;;5416498;26;20258;-65
2024/04/20 05:46:18;;;;;;;0.88;0.60;;;16.00;59.00;;;;;;5417961;26;20259;-65
2024/04/20 05:48:49;;;;;;;0.55;0.50;;;16.10;58.80;;;;;;5416673;26;20601;-65
2024/04/20 05:51:15;;;;;;;0.60;0.60;;;16.20;58.70;;;;;;5417892;26;20276;-65
2024/04/20 05:53:40;;;;;;;0.50;0.50;;;16.40;58.50;;;;;;5417336;26;20329;-65
2024/04/20 05:56:09;;;;;;;0.93;0.65;;;16.50;58.20;;;;;;5416892;26;20221;-65
2024/04/20 05:58:34;;;;;;;0.50;0.40;;;16.70;57.90;;;;;;5416155;26;20309;-66
2024/04/20 06:01:00;;;;;;;0.68;0.50;;;16.80;57.70;;;;;;5417181;26;20236;-66
2024/04/20 06:03:25;;;;;;;1.02;0.47;;;17.00;57.60;;;;;;5416935;26;20221;-65
2024/04/20 06:05:51;;;;;;;0.45;0.45;;;17.10;57.90;;;;;;5417117;26;21285;-64
2024/04/20 06:08:16;;;;;;;0.95;0.45;;;17.20;57.10;;;;;;5417499;26;20302;-64
2024/04/20 06:10:54;;;;;;;1.23;0.55;;;17.40;56.90;;;;;;5416371;26;20217;-64
2024/04/20 06:13:20;;;;;;;0.50;0.50;;;17.50;56.50;;;;;;5417425;26;20224;-65
2024/04/20 06:15:45;;;;;;;1.05;0.35;;;17.50;56.30;;;;;;5417099;26;20811;-65
2024/04/20 06:18:11;;;;;;;1.08;0.40;;;17.60;56.20;;;;;;5416489;26;20248;-65
2024/04/20 06:20:37;;;;;;;0.40;0.40;;;17.60;56.10;;;;;;5417367;26;20774;-65
2024/04/20 06:23:03;;;;;;;1.05;0.52;;;17.60;56.10;;;;;;5416965;26;20232;-65
2024/04/20 06:25:29;;;;;;;0.88;0.50;;;17.60;56.20;;;;;;5416410;26;20237;-64
2024/04/20 06:27:54;;;;;;;1.25;0.50;;;17.50;56.20;;;;;;5416882;26;20552;-64
2024/04/20 06:30:20;;;;;;;0.57;0.50;;;17.60;56.30;;;;;;5417214;26;20764;-65
2024/04/20 06:32:48;;;;;;;1.17;0.50;;;17.50;56.30;;;;;;5416128;26;20336;-64
2024/04/20 06:35:17;;;;;;;1.25;0.50;;;17.60;56.30;;;;;;5417308;26;20683;-66
2024/04/20 06:37:43;;;;;;;0.35;0.35;;;17.60;56.30;;;;;;5416544;26;20327;-65
2024/04/20 06:40:09;;;;;;;0.40;0.40;;;17.50;56.40;;;;;;5416322;26;20229;-65
2024/04/20 06:42:36;;;;;;;0.52;0.38;;;17.50;56.50;;;;;;5417117;26;20232;-67
2024/04/20 06:45:02;;;;;;;0.52;0.43;;;17.50;56.50;;;;;;5415769;26;20221;-67
2024/04/20 06:47:27;;;;;;;2.00;0.47;;;17.50;56.50;;;;;;5416971;26;20221;-66
2024/04/20 06:49:54;;;;;;;0.68;0.45;;;17.50;56.50;;;;;;5416577;26;20317;-67
2024/04/20 06:52:19;;;;;;;0.77;0.43;;;17.50;56.50;;;;;;5416141;26;20216;-64
2024/04/20 06:54:45;;;;;;;0.47;0.30;;;17.50;56.50;;;;;;5415612;26;20221;-66
2024/04/20 06:57:11;;;;;;;0.50;0.40;;;17.50;56.60;;;;;;5416992;26;20216;-66
2024/04/20 06:59:37;;;;;;;0.40;0.40;;;17.50;56.50;;;;;;5416075;26;20951;-65
2024/04/20 07:02:02;;;;;;;0.90;0.60;;;17.50;56.60;;;;;;5416333;26;20216;-66
2024/04/20 07:04:28;;;;;;;0.98;0.60;;;17.60;56.50;;;;;;5416738;26;20254;-65
2024/04/20 07:06:53;;;;;;;0.40;0.40;;;17.60;56.60;;;;;;5415474;26;20647;-65
2024/04/20 07:09:19;;;;;;;1.17;0.60;;;17.50;56.60;;;;;;5416771;26;20703;-65
2024/04/20 07:11:44;;;;;;;0.55;0.50;;;17.60;56.60;;;;;;5416411;26;20221;-65
2024/04/20 07:14:10;;;;;;;0.98;0.50;;;17.60;56.50;;;;;;5416079;26;20263;-65
2024/04/20 07:16:36;;;;;;;0.73;0.47;;;17.60;56.50;;;;;;5416595;26;20220;-65
2024/04/20 07:19:02;;;;;;;1.33;0.88;;;17.60;56.60;;;;;;5415956;26;20236;-66
2024/04/20 07:21:27;;;;;;;1.08;0.60;;;17.60;56.60;;;;;;5415681;26;20216;-65
2024/04/20 07:23:53;;;;;;;1.25;0.70;;;17.60;56.50;;;;;;5416095;26;20624;-64
2024/04/20 07:26:18;;;;;;;0.98;0.50;;;17.60;56.60;;;;;;5416436;26;20550;-64
2024/04/20 07:28:47;;;;;;;0.63;0.55;;;17.60;56.50;;;;;;5415230;26;20320;-64
2024/04/20 07:31:13;;;;;;;0.50;0.50;;;17.70;57.20;;;;;;5416361;26;20229;-65
2024/04/20 07:33:38;;;;;;;0.60;0.40;;;17.70;56.50;;;;;;5416415;26;20259;-65
2024/04/20 07:36:04;;;;;;;0.43;0.43;;;17.60;56.50;;;;;;5415027;26;20220;-66
2024/04/20 07:38:30;;;;;;;1.58;0.50;;;17.60;56.60;;;;;;5416340;26;20234;-66
2024/04/20 07:40:56;;;;;;;0.60;0.40;;;17.60;56.70;;;;;;5415811;26;20657;-65
2024/04/20 07:43:21;;;;;;;1.55;0.40;;;17.60;56.70;;;;;;5415498;26;20259;-66
2024/04/20 07:45:47;;;;;;;0.70;0.45;;;17.50;56.70;;;;;;5415724;26;20733;-65
2024/04/20 07:48:13;;;;;;;1.30;0.90;;;17.50;56.80;;;;;;5415142;26;20616;-66
2024/04/20 07:50:39;;;;;;;0.45;0.38;;;17.50;56.90;;;;;;5416052;26;20268;-66
2024/04/20 07:53:05;;;;;;;1.17;0.50;;;17.50;57.00;;;;;;5415858;26;20232;-66
2024/04/20 07:55:30;;;;;;;0.70;0.60;;;17.40;57.20;;;;;;5415227;26;20247;-66
2024/04/20 07:57:56;;;;;;;0.57;0.50;;;17.30;57.20;;;;;;5415519;26;20570;-66
2024/04/20 08:00:22;;;;;;;0.95;0.68;;;17.20;57.40;;;;;;5415951;26;20292;-65
2024/04/20 08:02:47;;;;;;;1.15;0.50;;;17.20;57.60;;;;;;5414736;26;20237;-66
2024/04/20 08:05:13;;;;;;;1.10;0.50;;;17.10;57.60;;;;;;5415826;26;20679;-65
2024/04/20 08:07:39;;;;;;;0.50;0.50;;;17.10;57.60;;;;;;5418209;26;20330;-65
2024/04/20 08:10:06;;;;;;;0.95;0.60;;;17.00;57.70;;;;;;5418372;26;20270;-64
2024/04/20 08:12:32;;;;;;;0.98;0.60;;;17.00;57.80;;;;;;5419300;26;20249;-65
2024/04/20 08:14:57;;;;;;;1.38;0.77;;;17.00;57.80;;;;;;5418852;26;20349;-65
2024/04/20 08:17:23;;;;;;;0.90;0.50;;;17.10;57.80;;;;;;5418203;26;20638;-65
2024/04/20 08:19:48;;;;;;;0.68;0.45;;;17.10;57.80;;;;;;5418515;26;20828;-66
2024/04/20 08:22:14;;;;;;;0.98;0.57;;;17.10;57.70;;;;;;5418958;26;20259;-65
2024/04/20 08:24:39;;;;;;;1.50;0.82;;;17.10;57.70;;;;;;5417955;26;20327;-64
2024/04/20 08:27:05;;;;;;;0.93;0.52;;;17.00;57.90;;;;;;5418859;26;20258;-64
2024/04/20 08:29:32;;;;;;;1.63;0.90;;;17.10;57.70;;;;;;5418929;26;20276;-65
2024/04/20 08:31:58;;;;;;;1.73;0.55;;;17.00;57.70;;;;;;5417692;26;20707;-65
2024/04/20 08:34:23;;;;;;;1.45;0.50;;;17.10;57.80;;;;;;5418919;26;20293;-65
2024/04/20 08:36:49;;;;;;;1.30;0.65;;;17.00;57.80;;;;;;5418442;26;20719;-66
2024/04/20 08:39:14;;;;;;;0.95;0.68;;;17.00;57.80;;;;;;5417996;26;20216;-66
2024/04/20 08:41:45;;;;;;;0.63;0.63;;;17.00;58.00;;;;;;5418415;26;20675;-66
2024/04/20 08:44:11;;;;;;;1.70;0.70;;;17.00;58.10;;;;;;5388147;26;20259;-66
2024/04/20 08:46:36;;;;;;;1.25;0.50;;;17.00;58.10;;;;;;5357456;26;20220;-65
2024/04/20 08:49:04;;;;;;;0.82;0.60;;;17.00;58.10;;;;;;5386972;26;20272;-66
2024/04/20 08:51:31;;;;;;;1.23;0.70;;;17.00;58.10;;;;;;5417943;26;20224;-66
2024/04/20 08:53:57;;;;;;;1.17;0.50;;;17.00;58.00;;;;;;5418273;26;20743;-66
2024/04/20 08:56:22;;;;;;;1.85;0.70;;;17.00;57.90;;;;;;5418520;26;20261;-66
2024/04/20 08:58:48;;;;;;;0.90;0.60;;;17.00;57.90;;;;;;5417383;26;20259;-65
2024/04/20 09:01:16;;;;;;;1.75;0.82;;;17.00;58.60;;;;;;5387172;26;20263;-65
2024/04/20 09:03:42;;;;;;;2.20;0.65;;;16.90;58.00;;;;;;5418037;26;20679;-65
2024/04/20 09:06:10;;;;;;;1.27;0.85;;;16.90;58.00;;;;;;5386388;26;20225;-65
2024/04/20 09:08:35;;;;;;;0.88;0.50;;;17.00;57.90;;;;;;5387764;26;20699;-65
2024/04/20 09:11:01;;;;;;;1.05;0.60;;;17.00;57.80;;;;;;5418054;26;20339;-65
2024/04/20 09:13:27;;;;;;;2.35;0.93;;;17.00;57.80;;;;;;5417566;26;20224;-65
2024/04/20 09:15:54;;;;;;;2.03;0.80;;;17.00;58.00;;;;;;5417914;26;20263;-65
2024/04/20 09:18:19;;;;;;;1.52;0.80;;;16.90;58.10;;;;;;5421179;26;20269;-65
2024/04/20 09:20:46;;;;;;;1.33;0.70;;;16.90;58.20;;;;;;5452878;26;20216;-65
2024/04/20 09:23:12;;;;;;;0.80;0.80;;;16.90;58.00;;;;;;5454172;26;20224;-64
2024/04/20 09:25:37;;;;;;;1.40;0.80;;;17.00;58.00;;;;;;5454100;26;20219;-64
2024/04/20 09:28:07;;;;;;;1.98;0.85;;;17.00;57.80;;;;;;5452916;26;20221;-64
2024/04/20 09:30:32;;;;;;;0.85;0.50;;;17.00;57.90;;;;;;5454070;26;20258;-64
2024/04/20 09:32:58;;;;;;;0.82;0.70;;;17.10;57.90;;;;;;5453584;26;20745;-65
2024/04/20 09:35:24;;;;;;;1.10;0.70;;;17.10;57.80;;;;;;5453215;26;20662;-65
2024/04/20 09:37:51;;;;;;;2.25;0.65;;;17.10;57.80;;;;;;5453638;26;20794;-65
2024/04/20 09:40:17;;;;;;;1.27;0.70;;;17.10;57.70;;;;;;5454013;26;20261;-65
2024/04/20 09:42:43;;;;;;;1.23;0.70;;;17.10;57.90;;;;;;5452695;26;20219;-65
2024/04/20 09:45:09;;;;;;;1.23;0.57;;;17.20;57.70;;;;;;5422275;26;20250;-65
2024/04/20 09:47:38;;;;;;;1.17;0.85;;;17.20;57.70;;;;;;5453621;26;20227;-65
2024/04/20 09:50:10;;;;;;;1.58;0.98;;;17.10;57.60;;;;;;5452577;26;20686;-65
2024/04/20 09:53:01;;;;;;;0.88;0.80;;;17.10;57.80;;;;;;5453906;26;20254;-65
2024/04/20 09:55:31;;;;;;;1.25;0.90;;;17.00;58.00;;;;;;5451437;26;20223;-65
2024/04/20 09:57:59;;;;;;;1.90;0.82;;;16.90;58.00;;;;;;5453650;26;20215;-65
2024/04/20 10:00:27;;;;;;;2.20;0.70;;;17.00;58.00;;;;;;5453533;26;20271;-64
2024/04/20 10:02:53;;;;;;;0.75;0.73;;;17.00;58.00;;;;;;5452345;26;20219;-65
2024/04/20 10:05:18;;;;;;;1.30;0.65;;;17.00;57.90;;;;;;5451859;26;20265;-65
2024/04/20 10:07:44;;;;;;;0.93;0.75;;;17.00;57.90;;;;;;5451454;26;20312;-64
2024/04/20 10:10:10;;;;;;;1.13;0.60;;;17.10;57.80;;;;;;5452696;26;20737;-64
2024/04/20 10:12:36;;;;;;;1.48;0.80;;;17.20;57.70;;;;;;5453425;26;20327;-64
2024/04/20 10:15:01;;;;;;;2.83;1.27;;;17.20;57.70;;;;;;5453009;26;20812;-64
2024/04/20 10:17:27;;;;;;;1.27;0.50;;;17.20;57.60;;;;;;5450840;26;20235;-65
2024/04/20 10:19:54;;;;;;;0.85;0.65;;;17.30;57.50;;;;;;5453107;26;20220;-65
2024/04/20 10:22:19;;;;;;;2.15;0.68;;;17.30;57.40;;;;;;5451430;26;20220;-64
2024/04/20 10:24:52;;;;;;;1.80;0.80;;;17.40;57.90;;;;;;5452031;26;20262;-64
2024/04/20 10:27:27;;;;;;;1.65;0.80;;;17.30;57.40;;;;;;5453414;26;20223;-64
2024/04/20 10:29:52;;;;;;;2.45;0.73;;;17.10;57.60;;;;;;5451569;26;20322;-64
2024/04/20 10:32:24;;;;;;;1.85;0.80;;;17.00;57.80;;;;;;5452283;26;20227;-65
2024/04/20 10:34:49;;;;;;;1.30;0.85;;;17.00;57.90;;;;;;5453007;26;20224;-65
2024/04/20 10:37:24;;;;;;;1.80;0.90;;;17.00;57.80;;;;;;5452302;26;20266;-65
2024/04/20 10:39:49;;;;;;;1.35;0.75;;;17.10;57.70;;;;;;5452887;26;20219;-65
2024/04/20 10:42:21;;;;;;;1.10;0.60;;;17.10;57.60;;;;;;5453035;26;20336;-66
2024/04/20 10:44:47;;;;;;;0.63;0.60;;;17.20;57.50;;;;;;5421819;26;20353;-65
2024/04/20 10:47:18;;;;;;;1.75;0.77;;;17.30;57.40;;;;;;5453154;26;20690;-66
2024/04/20 10:49:44;;;;;;;2.25;0.95;;;17.30;57.30;;;;;;5452561;26;20586;-65
2024/04/20 10:52:11;;;;;;;0.90;0.80;;;17.20;57.40;;;;;;5452209;26;20274;-65
2024/04/20 10:54:37;;;;;;;1.73;0.88;;;17.20;58.30;;;;;;5453005;26;20219;-65
2024/04/20 10:57:04;;;;;;;2.05;0.75;;;17.20;57.70;;;;;;5452375;26;20775;-65
2024/04/20 10:59:30;;;;;;;1.17;0.60;;;17.20;57.60;;;;;;5452051;26;20633;-65
2024/04/20 11:01:55;;;;;;;1.27;0.55;;;17.20;57.70;;;;;;5450622;26;20223;-65
2024/04/20 11:04:21;;;;;;;0.75;0.60;;;17.10;57.80;;;;;;5452773;26;20323;-65
2024/04/20 11:06:46;;;;;;;1.05;0.60;;;17.20;57.70;;;;;;5449948;26;20219;-64
2024/04/20 11:09:12;;;;;;;0.85;0.60;;;17.30;57.60;;;;;;5452695;26;20223;-64
2024/04/20 11:11:38;;;;;;;1.95;0.63;;;17.40;57.50;;;;;;5452624;26;20319;-64
2024/04/20 11:14:05;;;;;;;1.08;0.60;;;17.30;57.50;;;;;;5451448;26;20744;-65
2024/04/20 11:16:31;;;;;;;2.70;0.90;;;17.20;57.60;;;;;;5452645;26;20223;-65
2024/04/20 11:18:56;;;;;;;1.85;0.80;;;17.20;57.70;;;;;;5422387;26;20232;-65
2024/04/20 11:21:22;;;;;;;1.58;0.65;;;17.20;57.70;;;;;;5415744;26;20221;-65
2024/04/20 11:23:47;;;;;;;0.70;0.70;;;17.20;57.70;;;;;;5416177;26;20220;-64
2024/04/20 11:26:13;;;;;;;1.33;0.60;;;17.20;57.70;;;;;;5415977;26;20537;-64
2024/04/20 11:28:40;;;;;;;1.27;0.63;;;17.20;57.60;;;;;;5384986;26;20267;-64
2024/04/20 11:31:10;;;;;;;0.88;0.60;;;17.30;57.50;;;;;;5385874;26;20262;-64
2024/04/20 11:33:36;;;;;;;0.82;0.60;;;17.40;57.30;;;;;;5385028;26;20246;-65
2024/04/20 11:36:06;;;;;;;1.38;0.70;;;17.40;57.20;;;;;;5416010;26;20224;-65
2024/04/20 11:38:31;;;;;;;1.33;0.77;;;17.30;57.30;;;;;;5416355;26;20588;-65
2024/04/20 11:40:57;;;;;;;0.85;0.60;;;17.30;57.50;;;;;;5414678;26;20225;-66
2024/04/20 11:43:24;;;;;;;1.52;0.60;;;17.30;57.50;;;;;;5416262;26;20259;-65
2024/04/20 11:45:50;;;;;;;2.15;0.82;;;17.30;57.50;;;;;;5415814;26;20221;-66
2024/04/20 11:48:16;;;;;;;1.70;0.70;;;17.30;57.50;;;;;;5415414;26;20259;-65
2024/04/20 11:50:50;;;;;;;0.80;0.70;;;17.30;57.50;;;;;;5415660;26;20220;-65
2024/04/20 11:56:00;;;;;;;1.92;0.60;;;17.30;57.40;;;;;;5414881;26;20259;-65
2024/04/20 11:58:25;;;;;;;1.25;0.55;;;17.30;57.40;;;;;;5416038;26;20216;-66
2024/04/20 12:00:53;;;;;;;1.45;0.60;;;17.30;57.50;;;;;;5415417;26;20738;-65
2024/04/20 12:03:19;;;;;;;1.15;0.50;;;17.20;57.60;;;;;;5415100;26;20609;-65
2024/04/20 12:05:44;;;;;;;0.98;0.40;;;17.20;57.70;;;;;;5415443;26;20225;-65
2024/04/20 12:08:13;;;;;;;1.45;0.70;;;17.20;57.70;;;;;;5415960;26;20259;-64
2024/04/20 12:10:39;;;;;;;1.23;0.95;;;17.10;57.70;;;;;;5414871;26;20228;-64
2024/04/20 12:13:04;;;;;;;0.57;0.57;;;17.10;57.80;;;;;;5415357;26;20650;-64
2024/04/20 12:15:30;;;;;;;1.40;0.70;;;17.10;57.70;;;;;;5414892;26;20221;-65
2024/04/20 12:17:55;;;;;;;0.80;0.63;;;17.20;57.70;;;;;;5415101;26;20334;-65
2024/04/20 12:20:21;;;;;;;1.00;0.68;;;17.30;57.50;;;;;;5415358;26;20280;-64
2024/04/20 12:22:48;;;;;;;1.48;0.73;;;17.30;57.40;;;;;;5414244;26;20777;-65
2024/04/20 12:25:13;;;;;;;1.52;0.80;;;17.40;57.30;;;;;;5415567;26;20224;-64
2024/04/20 12:27:39;;;;;;;1.30;0.77;;;17.40;57.20;;;;;;5415191;26;20280;-65
2024/04/20 12:30:05;;;;;;;1.17;0.80;;;17.50;57.80;;;;;;5414279;26;20263;-64
2024/04/20 12:32:31;;;;;;;2.20;0.70;;;17.60;57.00;;;;;;5415449;26;20330;-65
2024/04/20 12:34:56;;;;;;;0.85;0.60;;;17.60;56.80;;;;;;5414906;26;20236;-65
2024/04/20 12:37:22;;;;;;;0.95;0.65;;;17.50;57.00;;;;;;5414442;26;20221;-65
2024/04/20 12:39:48;;;;;;;1.50;0.52;;;17.50;57.20;;;;;;5414768;26;20358;-65
2024/04/20 12:42:16;;;;;;;0.73;0.50;;;17.50;57.10;;;;;;5415112;26;20221;-65
2024/04/20 12:44:41;;;;;;;1.45;0.85;;;17.60;57.00;;;;;;5413924;26;20233;-65